createdAt,value
2019-05-02T00:01:09.548Z,13.00
2019-05-02T00:03:42.912Z,12.67
2019-05-02T00:06:15.344Z,15.33
2019-05-02T00:08:47.949Z,15.00
2019-05-02T00:11:20.575Z,14.70
2019-05-02T00:13:53.407Z,13.90
2019-05-02T00:16:26.628Z,13.70
2019-05-02T00:19:00.013Z,14.87
2019-05-02T00:21:32.902Z,17.97
2019-05-02T00:24:08.830Z,14.17
2019-05-02T00:26:41.871Z,15.50
2019-05-02T00:29:14.430Z,15.17
2019-05-02T00:31:48.852Z,17.53
2019-05-02T00:34:21.233Z,16.30
2019-05-02T00:36:53.377Z,16.90
2019-05-02T00:39:25.423Z,15.47
2019-05-02T00:41:57.560Z,18.77
2019-05-02T00:44:29.585Z,16.80
2019-05-02T00:47:10.971Z,16.63
2019-05-02T00:49:43.439Z,16.13
2019-05-02T00:52:15.686Z,17.73
2019-05-02T00:54:47.901Z,17.57
2019-05-02T00:57:21.753Z,17.13
2019-05-02T00:59:53.845Z,17.67
2019-05-02T01:02:40.574Z,15.03
2019-05-02T01:05:33.711Z,17.03
2019-05-02T01:08:05.532Z,17.77
2019-05-02T01:10:37.657Z,18.10
2019-05-02T01:13:09.757Z,17.33
2019-05-02T01:15:44.155Z,17.70
2019-05-02T01:18:16.044Z,18.90
2019-05-02T01:20:48.141Z,17.33
2019-05-02T01:23:22.990Z,16.07
2019-05-02T01:25:54.590Z,16.77
2019-05-02T01:28:44.067Z,17.93
2019-05-02T01:31:23.554Z,19.33
2019-05-02T01:34:26.559Z,18.00
2019-05-02T01:37:07.329Z,20.20
2019-05-02T01:39:42.856Z,20.77
2019-05-02T01:42:13.961Z,21.30
2019-05-02T01:44:45.960Z,22.20
2019-05-02T01:47:18.149Z,18.77
2019-05-02T01:49:52.022Z,20.23
2019-05-02T01:52:24.958Z,17.97
2019-05-02T01:54:57.310Z,22.10
2019-05-02T01:57:29.775Z,23.40
2019-05-02T02:00:04.179Z,19.80
2019-05-02T02:02:35.743Z,21.07
2019-05-02T02:05:10.223Z,22.00
2019-05-02T02:07:42.315Z,19.37
2019-05-02T02:10:19.845Z,20.23
2019-05-02T02:13:02.812Z,21.67
2019-05-02T02:15:25.174Z,21.23
2019-05-02T02:17:56.819Z,24.13
2019-05-02T02:20:31.726Z,23.77
2019-05-02T02:23:21.196Z,20.87
2019-05-02T02:26:06.734Z,25.90
2019-05-02T02:28:38.413Z,22.20
2019-05-02T02:31:10.496Z,23.07
2019-05-02T02:33:47.647Z,22.53
2019-05-02T02:36:16.381Z,23.20
2019-05-02T02:38:48.945Z,27.03
2019-05-02T02:41:21.344Z,23.63
2019-05-02T02:44:21.471Z,23.90
2019-05-02T02:46:54.973Z,23.37
2019-05-02T02:49:27.262Z,24.23
2019-05-02T02:52:04.768Z,22.80
2019-05-02T02:54:36.697Z,24.67
2019-05-02T02:57:07.048Z,24.27
2019-05-02T02:59:39.091Z,25.87
2019-05-02T03:02:12.147Z,23.70
2019-05-02T03:04:46.361Z,24.43
2019-05-02T03:07:25.757Z,24.70
2019-05-02T03:09:52.335Z,25.47
2019-05-02T03:12:43.156Z,26.90
2019-05-02T03:15:21.086Z,25.93
2019-05-02T03:17:52.487Z,24.60
2019-05-02T03:20:24.528Z,27.47
2019-05-02T03:22:57.096Z,25.17
2019-05-02T03:25:50.803Z,25.47
2019-05-02T03:28:18.585Z,23.53
2019-05-02T03:30:48.580Z,25.37
2019-05-02T03:33:20.968Z,26.43
2019-05-02T03:35:53.818Z,21.63
2019-05-02T03:38:32.368Z,24.23
2019-05-02T03:41:00.537Z,23.80
2019-05-02T03:43:32.796Z,22.90
2019-05-02T03:46:04.862Z,26.03
2019-05-02T03:48:37.106Z,25.90
2019-05-02T03:51:19.237Z,23.73
2019-05-02T03:53:43.441Z,25.80
2019-05-02T03:56:15.630Z,22.93
2019-05-02T03:58:55.769Z,27.33
2019-05-02T04:01:22.604Z,29.40
2019-05-02T04:03:56.544Z,25.30
2019-05-02T04:06:28.626Z,31.27
2019-05-02T04:09:02.014Z,26.30
2019-05-02T04:11:39.072Z,25.83
2019-05-02T04:14:16.009Z,26.70
2019-05-02T04:16:48.570Z,27.53
2019-05-02T04:19:18.240Z,32.00
2019-05-02T04:21:54.843Z,23.27
2019-05-02T04:24:26.298Z,25.93
2019-05-02T04:26:58.669Z,26.17
2019-05-02T04:29:32.849Z,26.50
2019-05-02T04:32:11.818Z,24.03
2019-05-02T04:34:39.307Z,25.97
2019-05-02T04:37:12.030Z,24.80
2019-05-02T04:39:44.707Z,24.23
2019-05-02T04:42:21.998Z,23.77
2019-05-02T04:45:11.897Z,27.30
2019-05-02T04:47:28.886Z,25.53
2019-05-02T04:49:59.858Z,23.53
2019-05-02T04:52:40.775Z,28.67
2019-05-02T04:55:14.805Z,25.07
2019-05-02T04:57:47.377Z,25.10
2019-05-02T05:00:14.344Z,22.67
2019-05-02T05:02:48.394Z,23.70
2019-05-02T05:05:25.801Z,22.80
2019-05-02T05:07:54.147Z,24.43
2019-05-02T05:10:27.670Z,21.47
2019-05-02T05:13:00.408Z,23.10
2019-05-02T05:15:40.160Z,25.07
2019-05-02T05:18:10.620Z,20.47
2019-05-02T05:20:45.921Z,19.87
2019-05-02T05:23:21.467Z,19.07
2019-05-02T05:26:03.523Z,23.07
2019-05-02T05:28:35.011Z,27.07
2019-05-02T05:31:07.678Z,21.57
2019-05-02T05:33:39.634Z,18.17
2019-05-02T05:36:11.763Z,19.47
2019-05-02T05:38:43.835Z,20.17
2019-05-02T05:41:20.187Z,17.60
2019-05-02T05:43:53.503Z,19.13
2019-05-02T05:46:23.474Z,17.83
2019-05-02T05:48:55.525Z,19.57
2019-05-02T05:51:27.886Z,18.97
2019-05-02T05:54:03.177Z,20.10
2019-05-02T05:56:39.733Z,19.53
2019-05-02T05:59:07.918Z,17.70
2019-05-02T06:01:41.886Z,20.53
2019-05-02T06:04:18.453Z,17.97
2019-05-02T06:06:48.083Z,20.35
2019-05-02T06:09:20.342Z,19.27
2019-05-02T06:11:55.346Z,20.13
2019-05-02T06:14:26.434Z,20.57
2019-05-02T06:16:58.709Z,18.90
2019-05-02T06:19:32.055Z,17.62
2019-05-02T06:22:04.291Z,16.00
2019-05-02T06:24:36.650Z,19.92
2019-05-02T06:27:08.796Z,18.90
2019-05-02T06:29:40.888Z,21.63
2019-05-02T06:32:13.989Z,18.00
2019-05-02T06:34:47.669Z,24.98
2019-05-02T06:37:19.767Z,18.48
2019-05-02T06:39:51.766Z,19.20
2019-05-02T06:42:27.669Z,20.92
2019-05-02T06:44:59.844Z,18.82
2019-05-02T06:47:36.062Z,17.20
2019-05-02T06:50:08.317Z,18.57
2019-05-02T06:52:40.399Z,17.85
2019-05-02T06:55:13.159Z,19.02
2019-05-02T06:57:45.286Z,20.23
2019-05-02T07:00:18.212Z,19.23
2019-05-02T07:02:50.424Z,18.00
2019-05-02T07:05:27.175Z,21.40
2019-05-02T07:07:56.654Z,17.55
2019-05-02T07:10:37.834Z,22.22
2019-05-02T07:13:10.716Z,16.45
2019-05-02T07:15:58.635Z,18.30
2019-05-02T07:18:34.009Z,18.00
2019-05-02T07:21:12.115Z,17.50
2019-05-02T07:23:41.796Z,19.30
2019-05-02T07:26:15.599Z,17.77
2019-05-02T07:28:48.118Z,19.07
2019-05-02T07:31:20.197Z,16.60
2019-05-02T07:33:52.352Z,17.80
2019-05-02T07:36:24.629Z,16.62
2019-05-02T07:38:57.489Z,15.20
2019-05-02T07:41:30.627Z,15.78
2019-05-02T07:44:04.426Z,15.98
2019-05-02T07:46:36.795Z,16.10
2019-05-02T07:49:08.984Z,14.68
2019-05-02T07:51:41.197Z,16.05
2019-05-02T07:54:13.460Z,14.53
2019-05-02T07:56:48.666Z,15.20
2019-05-02T07:59:23.282Z,15.08
2019-05-02T08:01:53.533Z,16.30
2019-05-02T08:04:25.672Z,15.85
2019-05-02T08:06:57.665Z,14.68
2019-05-02T08:09:29.803Z,15.13
2019-05-02T08:12:01.940Z,14.28
2019-05-02T08:14:34.743Z,14.85
2019-05-02T08:17:16.117Z,16.45
2019-05-02T08:19:43.182Z,15.50
2019-05-02T08:22:15.484Z,13.48
2019-05-02T08:24:47.614Z,14.45
2019-05-02T08:27:41.241Z,15.50
2019-05-02T08:30:25.190Z,15.23
2019-05-02T08:32:57.460Z,15.45
2019-05-02T08:35:29.571Z,14.45
2019-05-02T08:38:01.680Z,14.50
2019-05-02T08:40:33.760Z,14.60
2019-05-02T08:43:09.274Z,14.90
2019-05-02T08:45:39.752Z,16.15
2019-05-02T08:48:11.817Z,15.45
2019-05-02T08:50:43.871Z,14.70
2019-05-02T08:53:19.970Z,15.40
2019-05-02T08:55:49.798Z,16.42
2019-05-02T08:58:21.915Z,18.32
2019-05-02T09:00:54.019Z,15.60
2019-05-02T09:03:26.109Z,18.73
2019-05-02T09:06:05.523Z,17.60
2019-05-02T09:08:31.993Z,17.15
2019-05-02T09:11:04.151Z,16.25
2019-05-02T09:13:36.215Z,17.05
2019-05-02T09:16:08.273Z,16.60
2019-05-02T09:18:50.052Z,13.90
2019-05-02T09:21:14.092Z,16.48
2019-05-02T09:23:46.194Z,15.38
2019-05-02T09:26:31.966Z,16.57
2019-05-02T09:28:56.327Z,16.00
2019-05-02T09:31:26.049Z,13.45
2019-05-02T09:33:58.212Z,16.02
2019-05-02T09:36:32.181Z,15.35
2019-05-02T09:39:06.197Z,14.95
2019-05-02T09:41:38.259Z,11.43
2019-05-02T09:44:14.677Z,12.82
2019-05-02T09:47:03.445Z,10.48
2019-05-02T09:49:49.060Z,9.10
2019-05-02T09:52:22.275Z,10.08
2019-05-02T09:54:54.443Z,9.75
2019-05-02T09:57:26.510Z,10.32
2019-05-02T09:59:58.598Z,10.78
2019-05-02T10:02:32.438Z,10.45
2019-05-02T10:05:04.535Z,9.40
2019-05-02T10:07:36.681Z,9.80
2019-05-02T10:10:12.589Z,12.65
2019-05-02T10:12:44.776Z,10.35
2019-05-02T10:15:19.533Z,9.25
2019-05-02T10:17:52.019Z,9.78
2019-05-02T10:20:34.182Z,10.03
2019-05-02T10:22:58.213Z,9.75
2019-05-02T10:25:38.349Z,11.18
2019-05-02T10:28:04.540Z,8.83
2019-05-02T10:30:37.514Z,11.88
2019-05-02T10:33:09.707Z,10.38
2019-05-02T10:35:43.696Z,10.63
2019-05-02T10:38:19.438Z,10.45
2019-05-02T10:40:54.556Z,10.00
2019-05-02T10:43:23.682Z,10.98
2019-05-02T10:46:01.841Z,10.20
2019-05-02T10:48:35.642Z,8.85
2019-05-02T10:51:26.156Z,9.70
2019-05-02T10:53:58.474Z,10.43
2019-05-02T10:56:32.441Z,11.12
2019-05-02T10:59:05.076Z,10.63
2019-05-02T11:02:07.044Z,10.18
2019-05-02T11:04:43.491Z,12.78
2019-05-02T11:07:16.958Z,13.68
2019-05-02T11:09:49.384Z,11.60
2019-05-02T11:12:41.869Z,12.15
2019-05-02T11:15:32.581Z,9.60
2019-05-02T11:18:05.336Z,11.80
2019-05-02T11:20:37.676Z,9.80
2019-05-02T11:23:09.764Z,10.48
2019-05-02T11:25:42.199Z,9.35
2019-05-02T11:28:14.716Z,9.38
2019-05-02T11:30:46.924Z,9.15
2019-05-02T11:33:19.218Z,10.90
2019-05-02T11:35:53.520Z,8.40
2019-05-02T11:38:25.982Z,8.63
2019-05-02T11:40:58.362Z,12.95
2019-05-02T11:43:32.510Z,13.05
2019-05-02T11:46:07.313Z,9.00
2019-05-02T11:48:38.184Z,9.38
2019-05-02T11:51:12.715Z,9.88
2019-05-02T11:53:44.709Z,10.43
2019-05-02T11:56:16.792Z,9.60
2019-05-02T11:58:50.253Z,7.85
2019-05-02T12:01:35.524Z,9.60
2019-05-02T12:03:56.809Z,9.50
2019-05-02T12:06:29.284Z,8.65
2019-05-02T12:09:02.006Z,8.60
2019-05-02T12:11:34.571Z,8.28
2019-05-02T12:14:07.015Z,9.93
2019-05-02T12:16:39.023Z,8.38
2019-05-02T12:19:14.436Z,8.73
2019-05-02T12:21:55.787Z,9.35
2019-05-02T12:24:28.000Z,7.00
2019-05-02T12:27:00.016Z,6.90
2019-05-02T12:29:33.485Z,7.20
2019-05-02T12:32:05.764Z,8.98
2019-05-02T12:34:37.799Z,8.55
2019-05-02T12:37:09.961Z,6.70
2019-05-02T12:39:42.610Z,6.03
2019-05-02T12:42:15.140Z,5.83
2019-05-02T12:44:47.576Z,6.78
2019-05-02T12:47:19.563Z,7.87
2019-05-02T12:49:52.033Z,7.83
2019-05-02T12:52:24.613Z,8.68
2019-05-02T12:54:56.672Z,7.85
2019-05-02T12:57:28.856Z,7.45
2019-05-02T13:00:01.840Z,8.15
2019-05-02T13:02:45.858Z,6.87
2019-05-02T13:05:18.156Z,6.05
2019-05-02T13:08:02.525Z,6.45
2019-05-02T13:10:54.059Z,7.12
2019-05-02T13:13:25.865Z,5.58
2019-05-02T13:16:00.839Z,5.78
2019-05-02T13:18:36.532Z,5.08
2019-05-02T13:21:07.990Z,6.67
2019-05-02T13:24:07.241Z,7.97
2019-05-02T13:26:37.129Z,11.88
2019-05-02T13:29:11.719Z,7.65
2019-05-02T13:31:53.147Z,11.15
2019-05-02T13:34:32.176Z,9.08
2019-05-02T13:37:05.170Z,12.50
2019-05-02T13:40:17.026Z,10.90
2019-05-02T13:42:59.388Z,11.48
2019-05-02T13:45:49.073Z,9.33
2019-05-02T13:48:21.816Z,8.90
2019-05-02T13:50:54.002Z,10.30
2019-05-02T13:53:28.193Z,7.58
2019-05-02T13:56:44.707Z,10.78
2019-05-02T13:59:16.320Z,12.45
2019-05-02T14:02:08.613Z,5.70
2019-05-02T14:04:41.522Z,5.40
2019-05-02T14:07:17.503Z,9.48
2019-05-02T14:09:57.962Z,7.15
2019-05-02T14:12:57.820Z,6.53
2019-05-02T14:15:41.955Z,5.62
2019-05-02T14:18:13.846Z,6.17
2019-05-02T14:20:45.916Z,5.62
2019-05-02T14:23:18.237Z,6.75
2019-05-02T14:26:02.091Z,5.87
2019-05-02T14:28:36.428Z,8.85
2019-05-02T14:31:08.988Z,8.70
2019-05-02T14:33:42.593Z,9.95
2019-05-02T14:36:15.169Z,9.08
2019-05-02T14:38:47.301Z,8.75
2019-05-02T14:41:38.935Z,7.83
2019-05-02T14:44:04.712Z,6.60
2019-05-02T14:46:39.277Z,10.63
2019-05-02T14:49:12.043Z,6.05
2019-05-02T14:51:44.336Z,5.92
2019-05-02T14:54:16.966Z,4.85
2019-05-02T14:57:03.016Z,5.25
2019-05-02T14:59:35.200Z,6.60
2019-05-02T15:02:13.105Z,5.75
2019-05-02T15:04:48.853Z,7.78
2019-05-02T15:07:24.836Z,6.40
2019-05-02T15:09:57.188Z,8.80
2019-05-02T15:12:28.005Z,7.72
2019-05-02T15:15:00.045Z,8.83
2019-05-02T15:17:36.318Z,7.90
2019-05-02T15:20:08.506Z,7.13
2019-05-02T15:22:42.459Z,6.28
2019-05-02T15:25:17.786Z,7.78
2019-05-02T15:28:02.463Z,7.28
2019-05-02T15:30:36.986Z,6.03
2019-05-02T15:33:12.538Z,5.50
2019-05-02T15:35:57.309Z,8.08
2019-05-02T15:38:48.591Z,6.15
2019-05-02T15:41:21.911Z,8.25
2019-05-02T15:43:54.173Z,9.27
2019-05-02T15:46:28.151Z,15.83
2019-05-02T15:49:01.865Z,6.50
2019-05-02T15:51:38.048Z,5.65
2019-05-02T15:54:08.819Z,6.95
2019-05-02T15:57:00.834Z,10.28
2019-05-02T15:59:42.431Z,7.03
2019-05-02T16:02:12.927Z,7.78
2019-05-02T16:04:46.916Z,9.05
2019-05-02T16:07:19.367Z,13.62
2019-05-02T16:09:56.367Z,12.15
2019-05-02T16:12:27.190Z,7.78
2019-05-02T16:14:59.806Z,6.12
2019-05-02T16:17:33.426Z,7.75
2019-05-02T16:20:13.407Z,7.75
2019-05-02T16:22:49.585Z,5.67
2019-05-02T16:25:24.325Z,8.10
2019-05-02T16:27:57.495Z,5.37
2019-05-02T16:30:28.119Z,6.90
2019-05-02T16:33:02.699Z,23.25
2019-05-02T16:35:35.897Z,16.12
2019-05-02T16:38:07.982Z,16.37
2019-05-02T16:40:41.853Z,6.83
2019-05-02T16:43:14.159Z,5.87
2019-05-02T16:45:54.229Z,7.12
2019-05-02T16:48:39.254Z,7.05
2019-05-02T16:51:27.714Z,6.25
2019-05-02T16:53:45.808Z,5.90
2019-05-02T16:56:18.026Z,8.65
2019-05-02T16:58:52.110Z,12.18
2019-05-02T17:01:27.451Z,6.47
2019-05-02T17:04:28.367Z,8.05
2019-05-02T17:07:05.803Z,5.12
2019-05-02T17:09:45.515Z,5.15
2019-05-02T17:12:17.827Z,7.08
2019-05-02T17:15:07.890Z,6.37
2019-05-02T17:17:39.928Z,5.20
2019-05-02T17:20:16.534Z,5.70
2019-05-02T17:22:50.192Z,5.22
2019-05-02T17:25:20.332Z,6.70
2019-05-02T17:27:53.526Z,7.28
2019-05-02T17:30:33.657Z,6.20
2019-05-02T17:33:01.893Z,5.60
2019-05-02T17:35:34.446Z,5.78
2019-05-02T17:38:06.950Z,5.75
2019-05-02T17:40:39.111Z,5.17
2019-05-02T17:43:11.311Z,8.93
2019-05-02T17:45:43.772Z,15.67
2019-05-02T17:48:17.819Z,8.50
2019-05-02T17:51:12.416Z,48.60
2019-05-02T17:53:49.610Z,9.23
2019-05-02T17:56:22.528Z,7.17
2019-05-02T17:58:58.164Z,4.95
2019-05-02T18:01:37.609Z,5.83
2019-05-02T18:04:12.532Z,5.90
2019-05-02T18:06:46.934Z,5.90
2019-05-02T18:09:17.893Z,6.27
2019-05-02T18:11:51.692Z,10.08
2019-05-02T18:14:24.317Z,7.40
2019-05-02T18:16:57.461Z,5.60
2019-05-02T18:19:31.592Z,7.70
2019-05-02T18:22:07.131Z,7.63
2019-05-02T18:24:42.799Z,17.17
2019-05-02T18:27:12.870Z,21.57
2019-05-02T18:29:45.798Z,6.53
2019-05-02T18:32:22.790Z,5.77
2019-05-02T18:34:52.157Z,6.73
2019-05-02T18:37:25.793Z,6.10
2019-05-02T18:39:57.918Z,5.93
2019-05-02T18:42:31.676Z,7.37
2019-05-02T18:45:08.395Z,5.07
2019-05-02T18:47:42.249Z,4.77
2019-05-02T18:50:36.802Z,5.07
2019-05-02T18:53:13.751Z,5.00
2019-05-02T18:55:46.419Z,5.33
2019-05-02T18:58:19.131Z,4.57
2019-05-02T19:00:52.109Z,5.20
2019-05-02T19:03:24.932Z,6.80
2019-05-02T19:05:58.509Z,4.40
2019-05-02T19:08:45.401Z,6.53
2019-05-02T19:11:12.172Z,11.63
2019-05-02T19:13:44.474Z,11.37
2019-05-02T19:16:19.304Z,11.30
2019-05-02T19:18:54.444Z,10.47
2019-05-02T19:21:26.530Z,10.13
2019-05-02T19:23:59.029Z,8.30
2019-05-02T19:26:32.597Z,10.90
2019-05-02T19:29:17.346Z,12.60
2019-05-02T19:31:52.724Z,8.87
2019-05-02T19:34:27.004Z,8.97
2019-05-02T19:37:03.029Z,9.50
2019-05-02T19:39:39.076Z,10.20
2019-05-02T19:42:12.264Z,15.03
2019-05-02T19:44:45.196Z,18.17
2019-05-02T19:47:17.792Z,10.83
2019-05-02T19:49:52.392Z,14.70
2019-05-02T19:52:28.611Z,11.83
2019-05-02T19:54:59.062Z,8.77
2019-05-02T19:57:32.396Z,8.07
2019-05-02T20:00:06.633Z,11.93
2019-05-02T20:02:42.333Z,5.23
2019-05-02T20:05:16.507Z,5.73
2019-05-02T20:07:47.730Z,4.93
2019-05-02T20:10:20.211Z,5.87
2019-05-02T20:12:52.901Z,8.03
2019-05-02T20:15:28.948Z,4.23
2019-05-02T20:18:04.715Z,7.03
2019-05-02T20:20:55.836Z,8.67
2019-05-02T20:23:31.388Z,7.03
2019-05-02T20:26:02.107Z,5.83
2019-05-02T20:28:34.406Z,5.97
2019-05-02T20:31:07.698Z,7.93
2019-05-02T20:33:40.298Z,7.57
2019-05-02T20:36:12.994Z,7.83
2019-05-02T20:38:45.324Z,5.70
2019-05-02T20:41:17.657Z,6.23
2019-05-02T20:43:51.540Z,8.90
2019-05-02T20:46:23.498Z,6.57
2019-05-02T20:48:56.013Z,6.00
2019-05-02T20:51:28.253Z,6.20
2019-05-02T20:54:01.908Z,7.40
2019-05-02T20:56:34.472Z,8.27
2019-05-02T20:59:06.819Z,7.33
2019-05-02T21:01:39.024Z,7.00
2019-05-02T21:04:12.079Z,7.53
2019-05-02T21:06:53.805Z,8.60
2019-05-02T21:09:53.794Z,7.17
2019-05-02T21:12:26.127Z,19.80
2019-05-02T21:14:58.402Z,10.97
2019-05-02T21:17:32.638Z,14.83
2019-05-02T21:20:04.643Z,13.97
2019-05-02T21:22:38.216Z,9.70
2019-05-02T21:25:13.032Z,12.17
2019-05-02T21:27:45.532Z,5.37
2019-05-02T21:30:24.482Z,5.37
2019-05-02T21:32:56.637Z,7.30
2019-05-02T21:35:29.317Z,10.83
2019-05-02T21:38:01.567Z,6.10
2019-05-02T21:40:34.200Z,5.90
2019-05-02T21:43:06.548Z,5.27
2019-05-02T21:45:38.884Z,4.50
2019-05-02T21:48:11.108Z,6.33
2019-05-02T21:50:51.575Z,6.43
2019-05-02T21:53:30.379Z,6.47
2019-05-02T21:56:08.522Z,6.90
2019-05-02T21:58:42.821Z,5.13
2019-05-02T22:01:15.242Z,5.73
2019-05-02T22:03:47.353Z,4.80
2019-05-02T22:06:19.504Z,5.03
2019-05-02T22:08:52.338Z,4.70
2019-05-02T22:11:24.632Z,4.73
2019-05-02T22:13:57.028Z,5.30
2019-05-02T22:16:29.183Z,5.00
2019-05-02T22:19:02.903Z,4.90
2019-05-02T22:21:35.344Z,5.97
2019-05-02T22:24:11.496Z,3.80
2019-05-02T22:26:43.445Z,5.47
2019-05-02T22:29:15.340Z,5.40
2019-05-02T22:31:47.392Z,4.73
2019-05-02T22:34:32.682Z,8.63
2019-05-02T22:37:06.533Z,4.07
2019-05-02T22:39:55.391Z,4.13
2019-05-02T22:42:27.668Z,4.10
2019-05-02T22:45:12.532Z,4.83
2019-05-02T22:47:44.892Z,5.00
2019-05-02T22:50:17.199Z,5.40
2019-05-02T22:52:49.605Z,4.77
2019-05-02T22:55:22.589Z,3.90
2019-05-02T22:57:56.420Z,6.27
2019-05-02T23:00:29.334Z,4.07
2019-05-02T23:03:01.885Z,5.57
2019-05-02T23:05:34.399Z,5.73
2019-05-02T23:08:06.953Z,7.57
2019-05-02T23:10:39.138Z,6.73
2019-05-02T23:13:12.986Z,8.17
2019-05-02T23:15:45.395Z,3.73
2019-05-02T23:18:17.420Z,4.17
2019-05-02T23:20:49.716Z,3.80
2019-05-02T23:23:24.262Z,4.83
2019-05-02T23:26:29.389Z,4.30
2019-05-02T23:29:02.344Z,4.87
2019-05-02T23:31:34.455Z,4.53
2019-05-02T23:34:07.170Z,5.07
2019-05-02T23:36:41.631Z,5.30
2019-05-02T23:39:14.063Z,5.27
2019-05-02T23:41:46.189Z,5.23
2019-05-02T23:44:18.371Z,4.80
2019-05-02T23:46:51.560Z,4.50
2019-05-02T23:49:23.833Z,4.53
2019-05-02T23:51:55.856Z,8.30
2019-05-02T23:54:27.949Z,5.90
2019-05-02T23:56:59.981Z,6.60
2019-05-02T23:59:32.153Z,5.37
